Terminal Aerodrome Forecast
Issued by NWS

Home | Current Version | Previous Version | Graphics & Text | Print | Product List | Glossary On
Versions: 1 2 3 4 5 6 7 8 9 10 11 12 13 14 15 16 17 18 19
903
FTUS43 KGRB 210909 AAA
TAFMTW
TAF AMD
KMTW 210909Z 2109/2206 21010G16KT P6SM SCT015 BKN070
      TEMPO 2109/2111 SCT005 BKN015
     FM211200 26010G17KT P6SM SCT015 BKN020
     FM211600 27007KT P6SM SCT012 BKN250
     FM211900 22008KT P6SM FEW250=

USA.gov is the U.S. government's official web portal to all federal, state and local government web resources and services.